Time;durP1;ratioP1;P1;durP2;ratioP2;P2;SDS_P1;SDS_P2;PMS_P1;PMS_P2;Temp;Humidity;BMP_temperature;BMP_pressure;BME280_temperature;BME280_humidity;BME280_pressure;Samples;Min_cycle;Max_cycle;Signal;HPM_P1;HPM_P2
2021/06/03 00:02:18;;;;;;;4.45;3.45;;;13.60;76.90;;;;;;5013296;28;20408;-44
2021/06/03 00:04:44;;;;;;;6.22;3.50;;;13.40;78.00;;;;;;5037656;28;20428;-48
2021/06/03 00:07:12;;;;;;;6.55;3.15;;;13.30;78.40;;;;;;5034163;28;20022;-48
2021/06/03 00:09:38;;;;;;;6.22;3.63;;;13.20;79.10;;;;;;5031935;28;20049;-48
2021/06/03 00:12:05;;;;;;;3.80;3.10;;;13.10;79.90;;;;;;5026824;28;20060;-48
2021/06/03 00:14:31;;;;;;;5.95;3.10;;;13.00;80.50;;;;;;5047641;28;20028;-48
2021/06/03 00:16:56;;;;;;;4.95;3.00;;;12.90;81.20;;;;;;5039966;28;20033;-48
2021/06/03 00:19:22;;;;;;;3.42;2.97;;;12.80;81.80;;;;;;5042640;28;20440;-46
2021/06/03 00:21:48;;;;;;;3.28;2.90;;;12.80;81.80;;;;;;5048544;28;20464;-47
2021/06/03 00:24:14;;;;;;;4.90;2.83;;;12.80;81.90;;;;;;5030618;28;20146;-49
2021/06/03 00:26:40;;;;;;;5.35;3.13;;;12.70;82.10;;;;;;5030959;28;20030;-46
2021/06/03 00:29:06;;;;;;;4.25;3.05;;;12.60;82.40;;;;;;5032734;28;20057;-53
2021/06/03 00:31:33;;;;;;;7.30;3.58;;;12.50;84.00;;;;;;5016723;28;20071;-50
2021/06/03 00:33:59;;;;;;;3.97;2.78;;;12.50;83.80;;;;;;5031515;28;20021;-49
2021/06/03 00:36:25;;;;;;;3.28;2.97;;;12.40;84.20;;;;;;5026272;28;20030;-48
2021/06/03 00:38:50;;;;;;;4.47;3.33;;;12.30;85.00;;;;;;5012908;28;20037;-48
2021/06/03 00:41:17;;;;;;;7.07;3.30;;;12.30;85.20;;;;;;5028307;28;20017;-48
2021/06/03 00:43:43;;;;;;;4.65;3.15;;;12.20;85.30;;;;;;5032414;28;20044;-48
2021/06/03 00:46:09;;;;;;;4.18;3.30;;;12.20;86.20;;;;;;5032325;28;20037;-47
2021/06/03 00:48:36;;;;;;;5.70;3.95;;;12.10;86.00;;;;;;5031193;28;20041;-50
2021/06/03 00:51:05;;;;;;;5.60;3.60;;;12.10;86.70;;;;;;5031193;28;20480;-49
2021/06/03 00:53:31;;;;;;;4.82;3.70;;;12.10;87.60;;;;;;5032513;28;20412;-50
2021/06/03 00:55:58;;;;;;;6.32;3.92;;;12.00;88.40;;;;;;5032369;28;20100;-48
2021/06/03 00:58:25;;;;;;;5.10;4.25;;;11.90;89.50;;;;;;5031975;28;20041;-52
2021/06/03 01:00:53;;;;;;;5.85;3.72;;;11.90;89.80;;;;;;5031010;28;20384;-47
2021/06/03 01:03:20;;;;;;;7.13;4.72;;;11.80;90.30;;;;;;5030911;28;20083;-48
2021/06/03 01:05:48;;;;;;;7.13;4.82;;;11.70;90.80;;;;;;5032273;28;20029;-47
2021/06/03 01:08:18;;;;;;;8.77;4.90;;;11.70;91.40;;;;;;5031790;28;20384;-44
2021/06/03 01:10:55;;;;;;;11.50;6.40;;;11.60;91.60;;;;;;5031804;28;20030;-46
2021/06/03 01:13:32;;;;;;;9.70;6.43;;;11.50;92.10;;;;;;5041425;28;20029;-49
2021/06/03 01:16:01;;;;;;;10.15;6.93;;;11.40;92.70;;;;;;5045608;28;20072;-44
2021/06/03 01:18:28;;;;;;;11.65;5.45;;;11.30;93.40;;;;;;5035304;28;20049;-51
2021/06/03 01:20:57;;;;;;;11.55;6.47;;;11.30;94.00;;;;;;5035933;28;20084;-48
2021/06/03 01:23:38;;;;;;;12.55;5.80;;;11.30;94.60;;;;;;5036049;28;20041;-46
2021/06/03 01:26:04;;;;;;;7.20;4.90;;;11.30;94.80;;;;;;5035136;28;20089;-46
2021/06/03 01:28:31;;;;;;;6.95;5.03;;;11.40;95.10;;;;;;5035850;28;20071;-44
2021/06/03 01:30:57;;;;;;;5.63;4.05;;;11.40;94.80;;;;;;5035746;28;20392;-50
2021/06/03 01:33:26;;;;;;;4.88;3.97;;;11.30;94.80;;;;;;5032757;28;20045;-45
2021/06/03 01:35:55;;;;;;;5.75;4.30;;;11.30;95.00;;;;;;5035261;28;20036;-45
2021/06/03 01:38:27;;;;;;;5.07;3.85;;;11.20;95.80;;;;;;5035176;28;20539;-46
2021/06/03 01:40:53;;;;;;;8.38;4.35;;;11.10;96.10;;;;;;5035023;28;20036;-47
2021/06/03 01:43:21;;;;;;;6.15;4.57;;;11.00;96.90;;;;;;5035314;28;20064;-44
2021/06/03 01:45:48;;;;;;;8.98;5.85;;;10.90;97.50;;;;;;5035610;28;20021;-44
2021/06/03 01:48:16;;;;;;;8.30;6.35;;;10.90;98.30;;;;;;5034187;28;20528;-49
2021/06/03 01:50:43;;;;;;;10.52;6.93;;;10.80;98.60;;;;;;5034882;28;20033;-45
2021/06/03 01:53:09;;;;;;;10.98;6.80;;;10.70;99.30;;;;;;5035482;28;20021;-44
2021/06/03 01:55:36;;;;;;;12.07;6.90;;;10.70;99.70;;;;;;5043956;28;20033;-45
2021/06/03 01:58:02;;;;;;;10.95;6.88;;;10.60;99.90;;;;;;5055181;28;20550;-50
2021/06/03 02:00:28;;;;;;;11.35;6.00;;;10.60;99.90;;;;;;5034349;28;20036;-46
2021/06/03 02:02:54;;;;;;;11.93;7.43;;;10.50;99.90;;;;;;5034893;28;20034;-46
2021/06/03 02:05:20;;;;;;;8.45;5.93;;;10.50;99.90;;;;;;5033694;28;20036;-48
2021/06/03 02:07:46;;;;;;;8.98;5.80;;;10.50;99.90;;;;;;5035064;28;20021;-50
2021/06/03 02:10:13;;;;;;;9.57;6.15;;;10.60;99.90;;;;;;5034658;28;20068;-47
2021/06/03 02:12:46;;;;;;;11.95;6.05;;;10.60;99.90;;;;;;5037050;28;20025;-48
2021/06/03 02:15:13;;;;;;;8.05;5.45;;;10.60;99.90;;;;;;5038676;28;20037;-46
2021/06/03 02:17:46;;;;;;;8.35;5.22;;;10.50;99.90;;;;;;5034726;28;20033;-46
2021/06/03 02:20:22;;;;;;;8.18;5.32;;;10.50;99.90;;;;;;5032140;28;20158;-46
2021/06/03 02:22:50;;;;;;;8.95;5.10;;;10.50;99.90;;;;;;5015176;28;20033;-49
2021/06/03 02:25:17;;;;;;;6.82;4.93;;;10.40;99.90;;;;;;5032326;28;20044;-46
2021/06/03 02:27:44;;;;;;;7.25;5.25;;;10.30;99.90;;;;;;5034811;28;20101;-46
2021/06/03 02:30:10;;;;;;;7.72;5.25;;;10.30;99.90;;;;;;5034624;28;20072;-44
2021/06/03 02:32:37;;;;;;;8.32;5.05;;;10.20;99.90;;;;;;5034751;28;20377;-46
2021/06/03 02:35:09;;;;;;;9.00;4.97;;;10.20;99.90;;;;;;5033295;28;20041;-45
2021/06/03 02:37:38;;;;;;;7.85;5.13;;;10.20;99.90;;;;;;5034148;28;20048;-46
2021/06/03 02:40:07;;;;;;;9.13;5.65;;;10.20;99.90;;;;;;5034524;28;20022;-46
2021/06/03 02:42:34;;;;;;;5.82;4.20;;;10.20;99.90;;;;;;5034388;28;20040;-45
2021/06/03 02:44:59;;;;;;;8.70;5.05;;;10.30;99.90;;;;;;5034120;28;20538;-44
2021/06/03 02:47:26;;;;;;;6.78;4.60;;;10.30;99.90;;;;;;5034537;28;20130;-46
2021/06/03 02:49:52;;;;;;;7.72;4.18;;;10.40;99.90;;;;;;5033270;28;20037;-44
2021/06/03 02:52:17;;;;;;;5.85;4.90;;;10.40;99.90;;;;;;5034194;28;20026;-44
2021/06/03 02:54:44;;;;;;;5.90;3.78;;;10.50;99.90;;;;;;5033786;28;20029;-49
2021/06/03 02:57:09;;;;;;;7.45;4.07;;;10.50;99.90;;;;;;5034287;28;20036;-48
2021/06/03 02:59:35;;;;;;;5.10;4.25;;;10.50;99.90;;;;;;5034134;28;20407;-44
2021/06/03 03:02:01;;;;;;;6.15;4.05;;;10.50;99.90;;;;;;5033629;28;20036;-46
2021/06/03 03:04:26;;;;;;;5.47;4.03;;;10.50;99.90;;;;;;5033023;28;20415;-46
2021/06/03 03:06:52;;;;;;;7.00;4.70;;;10.60;99.90;;;;;;5034048;28;20025;-47
2021/06/03 03:09:17;;;;;;;9.27;4.93;;;10.60;99.90;;;;;;5033726;28;20120;-49
2021/06/03 03:11:43;;;;;;;6.80;4.60;;;10.60;99.90;;;;;;5032788;28;20030;-45
2021/06/03 03:14:08;;;;;;;6.85;4.95;;;10.70;99.90;;;;;;5041362;28;20033;-46
2021/06/03 03:16:34;;;;;;;7.78;4.53;;;10.70;99.90;;;;;;5033608;28;20026;-48
2021/06/03 03:18:59;;;;;;;6.60;4.43;;;10.70;99.90;;;;;;5033267;28;20033;-46
2021/06/03 03:21:25;;;;;;;7.70;4.63;;;10.80;99.90;;;;;;5033290;28;20094;-46
2021/06/03 03:23:50;;;;;;;8.68;4.60;;;10.90;99.90;;;;;;5033292;28;20030;-46
2021/06/03 03:26:16;;;;;;;6.43;4.70;;;10.90;99.90;;;;;;5033490;28;20041;-47
2021/06/03 03:28:41;;;;;;;6.25;4.63;;;11.00;99.90;;;;;;5033767;28;20047;-46
2021/06/03 03:31:07;;;;;;;7.80;5.53;;;11.10;99.90;;;;;;5033917;28;20485;-49
2021/06/03 03:33:32;;;;;;;8.30;5.57;;;11.20;99.90;;;;;;5032304;28;20096;-46
2021/06/03 03:35:58;;;;;;;7.53;5.00;;;11.30;99.90;;;;;;5033261;28;20029;-49
2021/06/03 03:38:24;;;;;;;7.10;4.85;;;11.70;99.90;;;;;;5032819;28;20033;-44
2021/06/03 03:40:50;;;;;;;6.82;3.80;;;12.50;99.80;;;;;;5032886;28;20064;-48
2021/06/03 03:43:16;;;;;;;5.20;4.70;;;13.50;96.50;;;;;;5033083;28;20040;-46
2021/06/03 03:45:42;;;;;;;5.55;3.88;;;14.40;92.80;;;;;;5033265;28;20048;-44
2021/06/03 03:48:08;;;;;;;5.80;3.45;;;15.30;90.10;;;;;;5032314;28;20071;-48
2021/06/03 03:50:36;;;;;;;6.05;3.70;;;16.10;85.90;;;;;;5033038;28;20067;-46
2021/06/03 03:53:03;;;;;;;9.10;4.20;;;16.80;81.80;;;;;;5033128;28;20041;-49
2021/06/03 03:55:29;;;;;;;6.20;4.40;;;17.40;79.80;;;;;;5032287;28;20431;-45
2021/06/03 03:57:54;;;;;;;7.93;3.97;;;18.00;77.10;;;;;;5032745;28;20030;-47
2021/06/03 04:00:31;;;;;;;6.13;3.90;;;18.60;75.10;;;;;;5033173;28;20033;-48
2021/06/03 04:02:57;;;;;;;5.63;4.28;;;19.20;71.50;;;;;;5032989;28;20079;-44
2021/06/03 04:05:23;;;;;;;7.95;3.30;;;19.50;71.90;;;;;;5032190;28;20104;-51
2021/06/03 04:07:49;;;;;;;7.50;3.40;;;20.00;70.70;;;;;;5029634;28;20029;-48
2021/06/03 04:10:18;;;;;;;4.78;3.80;;;20.60;69.60;;;;;;5032835;28;20023;-50
2021/06/03 04:12:45;;;;;;;4.55;3.90;;;20.90;67.50;;;;;;5036514;28;20524;-47
2021/06/03 04:15:12;;;;;;;5.30;4.13;;;21.40;66.80;;;;;;5033406;28;20132;-49
2021/06/03 04:17:38;;;;;;;7.78;3.95;;;21.70;65.80;;;;;;5032548;28;20033;-50
2021/06/03 04:20:10;;;;;;;4.85;3.83;;;22.00;64.40;;;;;;5031669;28;20033;-50
2021/06/03 04:22:36;;;;;;;4.60;4.05;;;22.30;63.60;;;;;;5032321;28;20033;-49
2021/06/03 04:25:04;;;;;;;6.85;4.05;;;22.60;61.80;;;;;;5031686;28;20026;-47
2021/06/03 04:27:30;;;;;;;7.85;3.70;;;22.90;61.40;;;;;;5032459;28;20059;-47
2021/06/03 04:29:56;;;;;;;5.70;4.25;;;23.20;60.90;;;;;;5032525;28;20468;-51
2021/06/03 04:32:22;;;;;;;6.28;4.55;;;23.40;59.60;;;;;;5032530;28;20033;-49
2021/06/03 04:34:47;;;;;;;7.65;4.57;;;23.70;58.10;;;;;;5030120;28;20029;-46
2021/06/03 04:37:13;;;;;;;5.70;4.03;;;23.80;57.70;;;;;;5032463;28;20508;-45
2021/06/03 04:39:38;;;;;;;5.78;4.10;;;24.10;55.80;;;;;;5031876;28;20029;-46
2021/06/03 04:42:05;;;;;;;4.57;3.95;;;24.20;56.70;;;;;;5032357;28;20376;-47
2021/06/03 04:44:31;;;;;;;3.85;3.05;;;24.50;56.10;;;;;;5031880;28;20028;-47
2021/06/03 04:46:56;;;;;;;4.35;3.95;;;24.80;56.10;;;;;;5031854;28;20029;-48
2021/06/03 04:49:22;;;;;;;5.80;4.00;;;25.30;55.40;;;;;;5031193;28;20476;-49
2021/06/03 04:51:47;;;;;;;7.55;3.80;;;25.80;54.10;;;;;;5024691;28;20037;-49
2021/06/03 04:54:13;;;;;;;5.30;3.55;;;25.90;53.40;;;;;;5031840;28;20036;-47
2021/06/03 04:56:39;;;;;;;4.10;3.22;;;26.00;53.20;;;;;;5032044;28;20380;-45
2021/06/03 04:59:05;;;;;;;5.70;3.97;;;26.30;53.00;;;;;;5035265;28;20056;-47
2021/06/03 05:01:31;;;;;;;6.15;3.83;;;26.40;51.60;;;;;;5041060;28;20037;-48
2021/06/03 05:03:56;;;;;;;5.72;3.83;;;26.60;51.00;;;;;;5030943;28;20025;-48
2021/06/03 05:06:22;;;;;;;5.82;3.92;;;26.80;50.50;;;;;;5032305;28;20076;-46
2021/06/03 05:08:47;;;;;;;7.65;4.15;;;27.10;50.60;;;;;;5031787;28;20104;-47
2021/06/03 05:11:13;;;;;;;8.45;4.47;;;27.10;49.70;;;;;;5032507;28;20056;-47
2021/06/03 05:13:38;;;;;;;7.35;4.13;;;27.40;49.50;;;;;;5043407;28;20037;-46
2021/06/03 05:16:06;;;;;;;6.40;4.68;;;27.60;48.60;;;;;;5034362;28;20083;-48
2021/06/03 05:18:31;;;;;;;6.30;4.50;;;27.30;47.30;;;;;;5031145;28;20036;-49
2021/06/03 05:20:57;;;;;;;10.45;4.20;;;27.50;47.70;;;;;;5032002;28;20108;-49
2021/06/03 05:23:23;;;;;;;7.22;4.10;;;27.30;48.30;;;;;;5031999;28;20108;-50
2021/06/03 05:25:49;;;;;;;14.18;4.72;;;27.80;47.30;;;;;;5031161;28;20026;-46
2021/06/03 05:28:15;;;;;;;5.40;4.00;;;27.90;46.00;;;;;;5032059;28;20540;-50
2021/06/03 05:30:41;;;;;;;4.47;3.67;;;28.20;46.00;;;;;;5032337;28;20330;-47
2021/06/03 05:33:06;;;;;;;5.65;3.88;;;28.00;46.30;;;;;;5030928;28;20116;-48
2021/06/03 05:35:32;;;;;;;4.90;4.07;;;28.60;45.50;;;;;;5031773;28;20533;-45
2021/06/03 05:37:58;;;;;;;6.45;4.70;;;28.80;45.30;;;;;;5031509;28;20025;-49
2021/06/03 05:40:26;;;;;;;8.38;3.85;;;29.30;44.70;;;;;;5031436;28;20113;-48
2021/06/03 05:42:54;;;;;;;4.38;3.50;;;29.80;44.50;;;;;;5031785;28;20506;-48
2021/06/03 05:45:20;;;;;;;4.03;3.60;;;30.20;44.10;;;;;;5031842;28;20109;-47
2021/06/03 05:47:46;;;;;;;3.88;3.17;;;30.60;42.60;;;;;;5032028;28;20499;-49
2021/06/03 05:50:13;;;;;;;6.55;3.95;;;30.40;43.20;;;;;;5030745;28;20075;-51
2021/06/03 05:52:40;;;;;;;6.72;3.35;;;30.70;42.50;;;;;;5031322;28;20503;-46
2021/06/03 05:55:07;;;;;;;5.43;4.38;;;31.20;42.70;;;;;;5031769;28;20393;-50
2021/06/03 05:57:33;;;;;;;7.05;3.70;;;31.50;41.80;;;;;;5032178;28;20021;-47
2021/06/03 05:59:58;;;;;;;9.70;4.10;;;31.60;41.90;;;;;;5032206;28;20132;-47
2021/06/03 06:02:44;;;;;;;8.60;4.18;;;31.30;41.40;;;;;;5034840;28;20033;-46
2021/06/03 06:07:55;;;;;;;6.93;3.13;;;30.80;41.10;;;;;;5035465;28;20041;-47
2021/06/03 06:10:20;;;;;;;4.50;3.50;;;31.00;41.50;;;;;;5034763;28;20029;-48
2021/06/03 06:12:46;;;;;;;5.25;3.42;;;31.70;41.10;;;;;;5039633;28;20094;-48
2021/06/03 06:15:13;;;;;;;6.18;3.40;;;32.30;40.70;;;;;;5043572;28;20057;-45
2021/06/03 06:17:39;;;;;;;6.07;3.70;;;32.40;39.90;;;;;;5035028;28;20033;-47
2021/06/03 06:20:05;;;;;;;8.00;3.75;;;32.30;39.60;;;;;;5033916;28;20044;-47
2021/06/03 06:22:31;;;;;;;3.80;2.95;;;32.30;39.70;;;;;;5035250;28;20036;-49
2021/06/03 06:24:56;;;;;;;5.07;3.60;;;32.00;39.50;;;;;;5034400;28;20026;-51
2021/06/03 06:27:22;;;;;;;6.43;3.67;;;32.30;39.80;;;;;;5034291;28;20029;-49
2021/06/03 06:29:48;;;;;;;7.38;3.67;;;32.40;39.30;;;;;;5034461;28;20034;-45
2021/06/03 06:32:13;;;;;;;5.07;3.55;;;32.80;39.10;;;;;;5034370;28;20033;-47
2021/06/03 06:34:39;;;;;;;3.75;3.42;;;33.00;38.70;;;;;;5032091;28;20053;-44
2021/06/03 06:37:04;;;;;;;6.15;3.30;;;33.10;38.00;;;;;;5034273;28;20485;-45
2021/06/03 06:39:30;;;;;;;3.45;2.90;;;32.80;38.20;;;;;;5034237;28;20052;-46
2021/06/03 06:41:55;;;;;;;3.88;3.20;;;33.30;38.50;;;;;;5034282;28;20108;-44
2021/06/03 06:44:21;;;;;;;5.05;3.20;;;33.80;37.80;;;;;;5034377;28;20087;-45
2021/06/03 06:46:47;;;;;;;6.57;3.15;;;34.20;37.50;;;;;;5034192;28;20034;-46
2021/06/03 06:49:12;;;;;;;5.13;3.42;;;34.70;37.30;;;;;;5033254;28;20044;-47
2021/06/03 06:51:38;;;;;;;7.43;3.60;;;35.10;36.80;;;;;;5034254;28;20029;-45
2021/06/03 06:54:03;;;;;;;3.45;3.03;;;34.90;36.30;;;;;;5034181;28;20086;-46
2021/06/03 06:56:29;;;;;;;3.30;3.00;;;35.30;36.50;;;;;;5033872;28;20018;-45
2021/06/03 06:58:54;;;;;;;6.07;3.67;;;35.30;36.40;;;;;;5033799;28;20045;-50
2021/06/03 07:01:20;;;;;;;7.15;3.33;;;35.10;35.50;;;;;;5033839;28;20025;-45
2021/06/03 07:03:45;;;;;;;5.20;3.22;;;35.40;35.70;;;;;;5033085;28;20033;-50
2021/06/03 07:06:11;;;;;;;4.68;3.17;;;35.50;35.20;;;;;;5034263;28;20063;-45
2021/06/03 07:08:36;;;;;;;4.03;2.95;;;35.30;35.60;;;;;;5034038;28;20113;-46
2021/06/03 07:11:02;;;;;;;4.10;2.63;;;35.70;35.50;;;;;;5032632;28;20441;-44
2021/06/03 07:13:28;;;;;;;4.63;2.97;;;35.80;35.50;;;;;;5043749;28;20079;-44
2021/06/03 07:15:53;;;;;;;5.32;2.92;;;36.50;35.40;;;;;;5053956;28;20048;-45
2021/06/03 07:18:21;;;;;;;4.30;2.72;;;37.00;34.90;;;;;;5032936;28;20037;-43
2021/06/03 07:20:46;;;;;;;3.22;2.60;;;37.20;34.00;;;;;;5033858;28;20113;-47
2021/06/03 07:23:12;;;;;;;9.00;3.38;;;37.20;34.00;;;;;;5033697;28;20108;-43
2021/06/03 07:25:40;;;;;;;6.65;3.47;;;36.60;33.30;;;;;;5033209;28;20067;-47
2021/06/03 07:28:07;;;;;;;6.40;3.35;;;35.70;32.90;;;;;;5033453;28;20030;-46
2021/06/03 07:30:33;;;;;;;4.78;2.92;;;35.50;33.70;;;;;;5033151;28;20105;-45
2021/06/03 07:32:59;;;;;;;4.18;3.20;;;35.10;33.70;;;;;;5032577;28;20454;-46
2021/06/03 07:35:26;;;;;;;3.72;2.97;;;35.00;33.50;;;;;;5033621;28;20036;-45
2021/06/03 07:37:52;;;;;;;3.33;2.55;;;35.50;33.40;;;;;;5033351;28;20032;-44
2021/06/03 07:40:21;;;;;;;5.07;2.72;;;36.00;33.40;;;;;;5033020;28;20040;-45
2021/06/03 07:42:49;;;;;;;3.35;2.88;;;36.80;32.70;;;;;;5033358;28;20025;-44
2021/06/03 07:45:17;;;;;;;3.97;2.90;;;36.90;32.80;;;;;;5033176;28;20108;-46
2021/06/03 07:47:43;;;;;;;4.13;2.90;;;37.00;32.30;;;;;;5033530;28;20061;-44
2021/06/03 07:50:10;;;;;;;4.07;2.83;;;36.80;32.30;;;;;;5031901;28;20476;-45
2021/06/03 07:52:36;;;;;;;9.48;3.13;;;36.90;32.50;;;;;;5033515;28;20132;-45
2021/06/03 07:55:05;;;;;;;4.25;2.83;;;36.50;32.40;;;;;;5023421;28;20409;-46
2021/06/03 07:57:30;;;;;;;4.97;2.70;;;36.60;32.40;;;;;;5028823;28;20033;-48
2021/06/03 07:59:56;;;;;;;4.10;2.90;;;37.10;31.50;;;;;;5032676;28;20056;-45
2021/06/03 08:02:22;;;;;;;5.43;2.65;;;36.40;31.50;;;;;;5031665;28;20555;-43
2021/06/03 08:04:49;;;;;;;3.13;2.65;;;35.60;32.20;;;;;;5031819;28;20100;-45
2021/06/03 08:07:15;;;;;;;3.58;2.80;;;35.70;32.60;;;;;;5032966;28;20684;-46
2021/06/03 08:09:41;;;;;;;2.75;2.40;;;35.30;32.70;;;;;;5037483;28;20028;-47
2021/06/03 08:12:07;;;;;;;3.78;2.75;;;35.80;33.20;;;;;;5032590;28;20148;-46
2021/06/03 08:14:33;;;;;;;3.63;2.70;;;36.20;31.80;;;;;;5036034;28;20026;-44
2021/06/03 08:16:58;;;;;;;3.50;2.35;;;36.00;31.60;;;;;;5032830;28;20421;-45
2021/06/03 08:19:24;;;;;;;4.53;1.98;;;35.40;31.90;;;;;;5031901;28;20030;-44
2021/06/03 08:21:50;;;;;;;2.60;2.10;;;35.70;32.10;;;;;;5032699;28;20029;-45
2021/06/03 08:24:16;;;;;;;2.80;2.13;;;36.50;31.70;;;;;;5032144;28;20039;-45
2021/06/03 08:26:41;;;;;;;6.07;2.42;;;37.60;30.70;;;;;;5032311;28;20419;-44
2021/06/03 08:29:07;;;;;;;4.03;2.70;;;37.20;30.60;;;;;;5032319;28;20376;-46
2021/06/03 08:31:33;;;;;;;5.05;2.30;;;37.30;30.60;;;;;;5033007;28;20025;-44
2021/06/03 08:34:03;;;;;;;5.22;2.40;;;37.10;30.80;;;;;;5031127;28;20393;-45
2021/06/03 08:36:29;;;;;;;2.40;1.98;;;37.00;30.50;;;;;;5032763;28;20025;-44
2021/06/03 08:38:54;;;;;;;3.25;2.45;;;36.40;30.90;;;;;;5032786;28;20032;-46
2021/06/03 08:41:20;;;;;;;2.50;2.17;;;36.20;30.50;;;;;;5032544;28;20029;-45
2021/06/03 08:43:46;;;;;;;3.60;1.88;;;35.40;30.30;;;;;;5032227;28;20041;-47
2021/06/03 08:46:12;;;;;;;3.05;2.50;;;35.30;30.80;;;;;;5032350;28;20045;-43
2021/06/03 08:48:38;;;;;;;3.25;2.10;;;35.50;30.60;;;;;;5031721;28;20096;-46
2021/06/03 08:51:05;;;;;;;3.03;2.10;;;35.40;30.60;;;;;;5032452;28;20021;-45
2021/06/03 08:53:31;;;;;;;4.32;2.47;;;35.70;30.60;;;;;;5032655;28;20029;-49
2021/06/03 08:56:15;;;;;;;5.65;2.40;;;36.20;29.90;;;;;;5032315;28;20021;-45
2021/06/03 08:58:41;;;;;;;2.95;2.35;;;35.50;30.30;;;;;;5032285;28;20045;-48
2021/06/03 09:01:09;;;;;;;3.75;2.17;;;36.00;30.50;;;;;;5032257;28;20378;-45
2021/06/03 09:03:35;;;;;;;4.57;2.42;;;35.90;30.20;;;;;;5031474;28;20025;-45
2021/06/03 09:06:02;;;;;;;4.05;2.65;;;36.10;30.20;;;;;;5032097;28;20109;-45
2021/06/03 09:08:55;;;;;;;4.80;2.25;;;36.00;30.40;;;;;;5032457;28;20033;-46
2021/06/03 09:11:23;;;;;;;5.30;2.63;;;35.50;30.40;;;;;;5032175;28;20514;-44
2021/06/03 09:13:52;;;;;;;3.20;2.40;;;35.40;30.70;;;;;;5032196;28;20112;-46
2021/06/03 09:16:30;;;;;;;3.00;2.30;;;35.30;30.80;;;;;;5032086;28;20568;-48
2021/06/03 09:19:03;;;;;;;3.53;2.17;;;35.40;30.60;;;;;;5031325;28;20504;-46
2021/06/03 09:21:35;;;;;;;3.58;2.45;;;35.00;30.50;;;;;;5032191;28;20033;-44
2021/06/03 09:24:13;;;;;;;4.97;2.20;;;34.50;30.70;;;;;;5032095;28;20496;-49
2021/06/03 09:26:45;;;;;;;5.15;2.40;;;34.50;31.50;;;;;;5032272;28;20176;-48
2021/06/03 09:29:12;;;;;;;5.07;2.63;;;34.30;31.00;;;;;;5032006;28;20029;-46
2021/06/03 09:31:40;;;;;;;5.30;3.05;;;33.80;31.00;;;;;;5032015;28;20030;-47
2021/06/03 09:34:15;;;;;;;3.70;2.13;;;33.30;31.40;;;;;;5031183;28;20025;-48
2021/06/03 09:36:47;;;;;;;4.20;2.40;;;33.20;31.80;;;;;;5035973;28;20097;-50
2021/06/03 09:39:29;;;;;;;2.42;2.22;;;32.90;32.10;;;;;;5035943;28;20022;-47
2021/06/03 09:42:14;;;;;;;7.35;2.72;;;32.90;31.80;;;;;;5035902;28;20025;-49
2021/06/03 09:44:55;;;;;;;3.30;2.35;;;32.70;33.00;;;;;;5035727;28;20029;-51
2021/06/03 09:47:26;;;;;;;4.38;2.50;;;32.80;32.30;;;;;;5035708;28;20030;-48
2021/06/03 09:49:55;;;;;;;4.75;2.83;;;32.50;32.10;;;;;;5034825;28;20029;-47
2021/06/03 09:52:25;;;;;;;6.72;2.60;;;31.90;32.40;;;;;;5035557;28;20025;-47
2021/06/03 09:54:57;;;;;;;4.43;2.50;;;31.10;33.10;;;;;;5035479;28;20104;-47
2021/06/03 09:57:34;;;;;;;3.15;2.30;;;29.90;33.90;;;;;;5035522;28;20412;-49
2021/06/03 10:00:07;;;;;;;3.10;2.75;;;29.00;35.10;;;;;;5035201;28;20463;-45
2021/06/03 10:02:36;;;;;;;4.00;2.72;;;28.30;35.40;;;;;;5035427;28;20113;-47
2021/06/03 10:05:15;;;;;;;4.85;3.00;;;27.70;36.40;;;;;;5034390;28;20028;-46
2021/06/03 10:07:55;;;;;;;4.47;2.90;;;27.30;37.30;;;;;;5035381;28;20022;-46
2021/06/03 10:10:21;;;;;;;5.60;2.80;;;26.80;37.50;;;;;;5034175;28;20033;-46
2021/06/03 10:12:49;;;;;;;3.42;2.75;;;26.40;38.30;;;;;;5038396;28;20029;-51
2021/06/03 10:15:21;;;;;;;4.93;2.88;;;26.10;38.70;;;;;;5034584;28;20507;-47
2021/06/03 10:18:23;;;;;;;5.43;3.08;;;25.90;39.10;;;;;;5035197;28;20040;-47
2021/06/03 10:20:52;;;;;;;4.82;2.90;;;25.90;39.40;;;;;;5013148;28;20037;-46
2021/06/03 10:23:21;;;;;;;6.45;2.58;;;25.70;39.40;;;;;;5030913;28;20109;-49
2021/06/03 10:25:50;;;;;;;4.28;2.42;;;25.60;39.60;;;;;;5034631;28;20048;-48
2021/06/03 10:28:19;;;;;;;4.85;2.85;;;25.50;39.70;;;;;;5034806;28;20358;-48
2021/06/03 10:30:53;;;;;;;6.72;2.60;;;25.40;39.80;;;;;;5034858;28;20032;-52
2021/06/03 10:33:21;;;;;;;6.45;2.85;;;25.20;40.30;;;;;;5033838;28;20481;-48
2021/06/03 10:35:51;;;;;;;6.43;2.60;;;25.10;40.40;;;;;;5034609;28;20044;-45
2021/06/03 10:38:19;;;;;;;4.30;2.88;;;25.10;40.50;;;;;;5034556;28;20033;-48
2021/06/03 10:40:51;;;;;;;5.60;3.00;;;25.00;40.50;;;;;;5034668;28;20535;-49
2021/06/03 10:43:17;;;;;;;5.75;3.22;;;24.90;40.70;;;;;;5034654;28;20419;-45
2021/06/03 10:45:44;;;;;;;4.18;2.60;;;24.70;41.00;;;;;;5034336;28;20017;-48
2021/06/03 10:48:10;;;;;;;4.78;2.70;;;24.70;41.30;;;;;;5033715;28;20581;-45
2021/06/03 10:50:39;;;;;;;7.20;3.72;;;24.60;41.70;;;;;;5034673;28;20053;-50
2021/06/03 10:53:08;;;;;;;6.65;2.88;;;24.60;42.10;;;;;;5034810;28;20372;-49
2021/06/03 10:55:52;;;;;;;5.60;2.45;;;24.60;42.20;;;;;;5034436;28;20025;-46
2021/06/03 10:58:29;;;;;;;5.75;3.03;;;24.60;42.00;;;;;;5034274;28;20049;-50
2021/06/03 11:01:03;;;;;;;4.72;2.90;;;24.50;42.50;;;;;;5034257;28;20493;-48
2021/06/03 11:03:41;;;;;;;3.83;3.00;;;24.60;42.50;;;;;;5033205;28;20039;-50
2021/06/03 11:06:11;;;;;;;5.35;3.08;;;24.70;42.20;;;;;;5034294;28;20096;-53
2021/06/03 11:09:02;;;;;;;5.68;2.90;;;24.80;41.90;;;;;;5034293;28;20040;-53
2021/06/03 11:11:36;;;;;;;6.10;3.13;;;24.70;42.20;;;;;;5034127;28;20422;-48
2021/06/03 11:14:09;;;;;;;3.03;2.60;;;24.70;41.90;;;;;;5034104;28;20383;-49
2021/06/03 11:16:34;;;;;;;4.90;2.60;;;24.70;42.00;;;;;;5033769;28;20033;-47
2021/06/03 11:19:03;;;;;;;4.45;2.63;;;24.70;41.80;;;;;;5033218;28;20362;-50
2021/06/03 11:21:37;;;;;;;3.78;2.78;;;24.70;42.60;;;;;;5033899;28;20022;-49
2021/06/03 11:24:34;;;;;;;5.22;2.80;;;24.70;42.40;;;;;;5034056;28;20033;-49
2021/06/03 11:27:08;;;;;;;3.95;2.90;;;24.80;42.20;;;;;;5033516;28;20112;-50
2021/06/03 11:29:55;;;;;;;3.90;2.80;;;24.80;41.70;;;;;;5033926;28;20028;-50
2021/06/03 11:32:27;;;;;;;4.13;3.00;;;25.00;42.40;;;;;;5033536;28;20068;-49
2021/06/03 11:35:00;;;;;;;6.70;3.45;;;24.90;41.90;;;;;;5032653;28;20034;-49
2021/06/03 11:37:35;;;;;;;3.67;2.75;;;24.80;41.40;;;;;;5033595;28;20033;-52
2021/06/03 11:40:07;;;;;;;6.22;2.95;;;24.60;41.60;;;;;;5033821;28;20036;-51
2021/06/03 11:42:39;;;;;;;3.00;2.60;;;24.70;42.10;;;;;;5033460;28;20493;-49
2021/06/03 11:45:25;;;;;;;5.72;2.95;;;24.80;42.40;;;;;;5033446;28;20021;-50
2021/06/03 11:47:56;;;;;;;;;;;24.80;43.00;;;;;;5033112;28;20059;-50
2021/06/03 11:50:22;;;;;;;3.67;2.95;;;24.80;42.60;;;;;;5033388;28;19905;-50
2021/06/03 11:52:57;;;;;;;5.07;3.58;;;24.80;42.20;;;;;;5033513;28;20036;-50
2021/06/03 11:55:43;;;;;;;7.75;2.47;;;24.70;42.30;;;;;;5031887;28;20120;-48
2021/06/03 11:58:25;;;;;;;;;;;24.70;42.30;;;;;;5033135;28;20046;-46
2021/06/03 12:00:55;;;;;;;5.55;3.17;;;24.70;43.00;;;;;;5033249;28;19928;-50
2021/06/03 12:03:31;;;;;;;5.80;2.83;;;24.70;42.20;;;;;;5032266;28;20034;-46
2021/06/03 12:06:25;;;;;;;6.38;2.70;;;24.60;42.50;;;;;;5033022;28;20029;-52
2021/06/03 12:08:56;;;;;;;5.40;2.55;;;24.60;42.50;;;;;;5033219;28;20025;-45
2021/06/03 12:11:24;;;;;;;4.72;3.25;;;24.60;42.60;;;;;;5032962;28;20021;-45
2021/06/03 12:14:01;;;;;;;4.53;2.88;;;24.80;42.90;;;;;;5031779;28;20034;-47
2021/06/03 12:16:50;;;;;;;4.93;2.72;;;24.80;42.50;;;;;;5032495;28;20116;-46
2021/06/03 12:19:21;;;;;;;3.40;2.53;;;24.90;42.90;;;;;;5031976;28;20548;-48
2021/06/03 12:21:57;;;;;;;3.55;2.58;;;24.90;42.50;;;;;;5031330;28;20029;-49
2021/06/03 12:24:36;;;;;;;7.32;3.60;;;24.90;42.70;;;;;;5032846;28;20092;-50
2021/06/03 12:27:02;;;;;;;3.20;2.70;;;24.90;42.90;;;;;;5032691;28;20034;-50
2021/06/03 12:29:31;;;;;;;5.03;3.20;;;24.90;42.60;;;;;;5032775;28;20032;-49
2021/06/03 12:31:57;;;;;;;4.70;3.10;;;24.90;42.30;;;;;;5032852;28;20479;-47
2021/06/03 12:34:27;;;;;;;5.40;3.15;;;24.90;42.30;;;;;;5029568;28;20021;-50
2021/06/03 12:36:53;;;;;;;3.60;2.80;;;24.90;42.30;;;;;;5032436;28;20045;-49
2021/06/03 12:39:19;;;;;;;5.97;3.20;;;24.90;42.70;;;;;;5032605;28;20104;-48
2021/06/03 12:41:46;;;;;;;3.10;2.80;;;24.90;42.50;;;;;;5032316;28;20021;-51
2021/06/03 12:44:17;;;;;;;6.45;2.70;;;24.90;43.00;;;;;;5031478;28;20059;-50
2021/06/03 12:46:52;;;;;;;6.07;3.25;;;24.90;42.90;;;;;;5031238;28;20026;-48
2021/06/03 12:49:23;;;;;;;3.70;2.63;;;24.90;42.30;;;;;;5030358;28;20029;-53
2021/06/03 12:52:04;;;;;;;3.45;2.90;;;24.90;42.30;;;;;;5032505;28;20044;-46
2021/06/03 12:54:55;;;;;;;4.68;3.03;;;24.90;42.60;;;;;;5032399;28;20020;-49
2021/06/03 12:57:25;;;;;;;4.25;2.85;;;24.90;43.50;;;;;;5025859;28;20021;-48
2021/06/03 12:59:53;;;;;;;4.68;2.60;;;25.00;42.60;;;;;;5031947;28;20038;-47